sensor_id;sensor_type;location;lat;lon;timestamp;temperature;humidity
70708;SHT30;58277;47.316;18.908;2023-07-29T00:02:13;21.46;73.37
70708;SHT30;58277;47.316;18.908;2023-07-29T00:04:36;21.40;73.48
70708;SHT30;58277;47.316;18.908;2023-07-29T00:06:59;21.36;73.59
70708;SHT30;58277;47.316;18.908;2023-07-29T00:09:22;21.35;73.60
70708;SHT30;58277;47.316;18.908;2023-07-29T00:11:44;21.28;73.79
70708;SHT30;58277;47.316;18.908;2023-07-29T00:14:07;21.19;73.92
70708;SHT30;58277;47.316;18.908;2023-07-29T00:16:30;21.15;74.49
70708;SHT30;58277;47.316;18.908;2023-07-29T00:18:53;21.15;74.45
70708;SHT30;58277;47.316;18.908;2023-07-29T00:21:16;21.09;74.62
70708;SHT30;58277;47.316;18.908;2023-07-29T00:23:38;21.08;74.44
70708;SHT30;58277;47.316;18.908;2023-07-29T00:26:01;21.06;74.31
70708;SHT30;58277;47.316;18.908;2023-07-29T00:28:23;21.05;74.51
70708;SHT30;58277;47.316;18.908;2023-07-29T00:30:46;21.03;74.49
70708;SHT30;58277;47.316;18.908;2023-07-29T00:33:09;21.05;74.34
70708;SHT30;58277;47.316;18.908;2023-07-29T00:35:34;21.13;73.94
70708;SHT30;58277;47.316;18.908;2023-07-29T00:37:57;21.13;73.80
70708;SHT30;58277;47.316;18.908;2023-07-29T00:40:22;21.11;73.82
70708;SHT30;58277;47.316;18.908;2023-07-29T00:42:45;21.03;74.06
70708;SHT30;58277;47.316;18.908;2023-07-29T00:45:08;20.90;74.54
70708;SHT30;58277;47.316;18.908;2023-07-29T00:47:31;20.77;75.14
70708;SHT30;58277;47.316;18.908;2023-07-29T00:49:54;20.73;75.40
70708;SHT30;58277;47.316;18.908;2023-07-29T00:52:17;20.68;75.35
70708;SHT30;58277;47.316;18.908;2023-07-29T00:54:42;20.68;75.37
70708;SHT30;58277;47.316;18.908;2023-07-29T00:57:06;20.68;75.20
70708;SHT30;58277;47.316;18.908;2023-07-29T00:59:31;20.58;75.37
70708;SHT30;58277;47.316;18.908;2023-07-29T01:01:54;20.65;75.21
70708;SHT30;58277;47.316;18.908;2023-07-29T01:04:17;20.78;75.12
70708;SHT30;58277;47.316;18.908;2023-07-29T01:07:00;20.84;74.85
70708;SHT30;58277;47.316;18.908;2023-07-29T01:12:22;20.75;75.11
70708;SHT30;58277;47.316;18.908;2023-07-29T01:14:58;20.84;74.92
70708;SHT30;58277;47.316;18.908;2023-07-29T01:17:23;20.84;74.86
70708;SHT30;58277;47.316;18.908;2023-07-29T01:20:08;20.78;75.01
70708;SHT30;58277;47.316;18.908;2023-07-29T01:22:35;20.81;75.31
70708;SHT30;58277;47.316;18.908;2023-07-29T01:24:59;20.73;75.65
70708;SHT30;58277;47.316;18.908;2023-07-29T01:27:22;20.71;75.74
70708;SHT30;58277;47.316;18.908;2023-07-29T01:29:45;20.77;75.50
70708;SHT30;58277;47.316;18.908;2023-07-29T01:32:14;20.73;75.74
70708;SHT30;58277;47.316;18.908;2023-07-29T01:37:25;20.70;76.32
70708;SHT30;58277;47.316;18.908;2023-07-29T01:39:50;20.68;76.27
70708;SHT30;58277;47.316;18.908;2023-07-29T01:42:13;20.64;76.57
70708;SHT30;58277;47.316;18.908;2023-07-29T01:44:36;20.53;76.71
70708;SHT30;58277;47.316;18.908;2023-07-29T01:46:59;20.56;76.53
70708;SHT30;58277;47.316;18.908;2023-07-29T01:49:22;20.43;77.02
70708;SHT30;58277;47.316;18.908;2023-07-29T01:51:44;20.40;77.19
70708;SHT30;58277;47.316;18.908;2023-07-29T01:54:07;20.34;77.28
70708;SHT30;58277;47.316;18.908;2023-07-29T01:56:31;20.27;77.47
70708;SHT30;58277;47.316;18.908;2023-07-29T01:58:54;20.19;77.56
70708;SHT30;58277;47.316;18.908;2023-07-29T02:01:17;20.12;77.59
70708;SHT30;58277;47.316;18.908;2023-07-29T02:03:40;20.05;77.62
70708;SHT30;58277;47.316;18.908;2023-07-29T02:06:03;19.92;78.18
70708;SHT30;58277;47.316;18.908;2023-07-29T02:08:26;19.93;78.24
70708;SHT30;58277;47.316;18.908;2023-07-29T02:10:48;19.89;78.55
70708;SHT30;58277;47.316;18.908;2023-07-29T02:13:12;19.82;78.63
70708;SHT30;58277;47.316;18.908;2023-07-29T02:15:35;19.83;78.67
70708;SHT30;58277;47.316;18.908;2023-07-29T02:17:57;19.79;78.88
70708;SHT30;58277;47.316;18.908;2023-07-29T02:20:21;19.65;79.13
70708;SHT30;58277;47.316;18.908;2023-07-29T02:22:45;19.64;78.95
70708;SHT30;58277;47.316;18.908;2023-07-29T02:25:08;19.54;79.24
70708;SHT30;58277;47.316;18.908;2023-07-29T02:27:32;19.53;79.42
70708;SHT30;58277;47.316;18.908;2023-07-29T02:29:56;19.43;79.76
70708;SHT30;58277;47.316;18.908;2023-07-29T02:32:19;19.40;80.17
70708;SHT30;58277;47.316;18.908;2023-07-29T02:34:42;19.35;80.46
70708;SHT30;58277;47.316;18.908;2023-07-29T02:37:05;19.28;80.64
70708;SHT30;58277;47.316;18.908;2023-07-29T02:39:27;19.34;80.43
70708;SHT30;58277;47.316;18.908;2023-07-29T02:41:51;19.38;80.45
70708;SHT30;58277;47.316;18.908;2023-07-29T02:44:34;19.44;80.19
70708;SHT30;58277;47.316;18.908;2023-07-29T02:47:17;19.46;79.91
70708;SHT30;58277;47.316;18.908;2023-07-29T02:49:40;19.54;79.62
70708;SHT30;58277;47.316;18.908;2023-07-29T02:52:03;19.61;79.05
70708;SHT30;58277;47.316;18.908;2023-07-29T02:54:25;19.60;78.88
70708;SHT30;58277;47.316;18.908;2023-07-29T02:56:50;19.58;78.75
70708;SHT30;58277;47.316;18.908;2023-07-29T02:59:13;19.57;79.03
70708;SHT30;58277;47.316;18.908;2023-07-29T03:01:36;19.57;79.09
70708;SHT30;58277;47.316;18.908;2023-07-29T03:03:58;19.62;78.50
70708;SHT30;58277;47.316;18.908;2023-07-29T03:06:21;19.67;78.09
70708;SHT30;58277;47.316;18.908;2023-07-29T03:08:45;19.68;77.51
70708;SHT30;58277;47.316;18.908;2023-07-29T03:11:13;19.71;77.43
70708;SHT30;58277;47.316;18.908;2023-07-29T03:13:36;19.67;77.21
70708;SHT30;58277;47.316;18.908;2023-07-29T03:18:34;19.61;77.52
70708;SHT30;58277;47.316;18.908;2023-07-29T03:20:57;19.55;77.58
70708;SHT30;58277;47.316;18.908;2023-07-29T03:23:19;19.54;77.77
70708;SHT30;58277;47.316;18.908;2023-07-29T03:25:42;19.43;78.07
70708;SHT30;58277;47.316;18.908;2023-07-29T03:28:05;19.38;78.36
70708;SHT30;58277;47.316;18.908;2023-07-29T03:30:28;19.37;78.52
70708;SHT30;58277;47.316;18.908;2023-07-29T03:32:50;19.33;78.64
70708;SHT30;58277;47.316;18.908;2023-07-29T03:35:13;19.35;78.68
70708;SHT30;58277;47.316;18.908;2023-07-29T03:37:36;19.35;78.48
70708;SHT30;58277;47.316;18.908;2023-07-29T03:39:59;19.41;78.27
70708;SHT30;58277;47.316;18.908;2023-07-29T03:42:26;19.57;78.15
70708;SHT30;58277;47.316;18.908;2023-07-29T03:44:49;19.74;77.68
70708;SHT30;58277;47.316;18.908;2023-07-29T03:47:12;19.81;77.36
70708;SHT30;58277;47.316;18.908;2023-07-29T03:49:37;19.74;77.85
70708;SHT30;58277;47.316;18.908;2023-07-29T03:52:00;19.88;77.35
70708;SHT30;58277;47.316;18.908;2023-07-29T03:54:23;20.05;76.71
70708;SHT30;58277;47.316;18.908;2023-07-29T03:56:46;20.15;76.42
70708;SHT30;58277;47.316;18.908;2023-07-29T03:59:09;20.19;76.35
70708;SHT30;58277;47.316;18.908;2023-07-29T04:01:32;20.29;76.06
70708;SHT30;58277;47.316;18.908;2023-07-29T04:03:55;20.30;75.75
70708;SHT30;58277;47.316;18.908;2023-07-29T04:06:18;20.50;75.45
70708;SHT30;58277;47.316;18.908;2023-07-29T04:08:41;20.68;74.67
70708;SHT30;58277;47.316;18.908;2023-07-29T04:11:04;20.81;74.36
70708;SHT30;58277;47.316;18.908;2023-07-29T04:13:27;20.95;74.09
70708;SHT30;58277;47.316;18.908;2023-07-29T04:15:49;21.11;73.82
70708;SHT30;58277;47.316;18.908;2023-07-29T04:18:13;21.23;73.54
70708;SHT30;58277;47.316;18.908;2023-07-29T04:20:37;21.33;73.06
70708;SHT30;58277;47.316;18.908;2023-07-29T04:23:00;21.46;72.80
70708;SHT30;58277;47.316;18.908;2023-07-29T04:25:23;21.46;72.77
70708;SHT30;58277;47.316;18.908;2023-07-29T04:27:45;21.51;72.63
70708;SHT30;58277;47.316;18.908;2023-07-29T04:30:08;21.61;72.47
70708;SHT30;58277;47.316;18.908;2023-07-29T04:32:31;21.71;72.20
70708;SHT30;58277;47.316;18.908;2023-07-29T04:34:54;21.74;72.41
70708;SHT30;58277;47.316;18.908;2023-07-29T04:37:16;21.83;72.05
70708;SHT30;58277;47.316;18.908;2023-07-29T04:39:39;21.87;71.92
70708;SHT30;58277;47.316;18.908;2023-07-29T04:42:02;22.01;71.63
70708;SHT30;58277;47.316;18.908;2023-07-29T04:44:25;22.08;71.64
70708;SHT30;58277;47.316;18.908;2023-07-29T04:46:47;22.31;71.14
70708;SHT30;58277;47.316;18.908;2023-07-29T04:49:10;22.39;70.93
70708;SHT30;58277;47.316;18.908;2023-07-29T04:51:33;22.52;69.85
70708;SHT30;58277;47.316;18.908;2023-07-29T04:53:56;22.67;70.15
70708;SHT30;58277;47.316;18.908;2023-07-29T04:56:19;23.00;69.49
70708;SHT30;58277;47.316;18.908;2023-07-29T04:58:41;23.20;69.24
70708;SHT30;58277;47.316;18.908;2023-07-29T05:01:04;23.32;68.85
70708;SHT30;58277;47.316;18.908;2023-07-29T05:03:27;23.49;68.46
70708;SHT30;58277;47.316;18.908;2023-07-29T05:05:50;23.83;67.46
70708;SHT30;58277;47.316;18.908;2023-07-29T05:08:14;23.97;67.43
70708;SHT30;58277;47.316;18.908;2023-07-29T05:10:37;24.50;65.60
70708;SHT30;58277;47.316;18.908;2023-07-29T05:12:59;24.79;64.92
70708;SHT30;58277;47.316;18.908;2023-07-29T05:15:22;24.83;64.09
70708;SHT30;58277;47.316;18.908;2023-07-29T05:17:45;24.86;63.44
70708;SHT30;58277;47.316;18.908;2023-07-29T05:20:08;24.95;63.00
70708;SHT30;58277;47.316;18.908;2023-07-29T05:22:32;25.02;62.03
70708;SHT30;58277;47.316;18.908;2023-07-29T05:24:54;25.17;62.17
70708;SHT30;58277;47.316;18.908;2023-07-29T05:27:17;25.50;61.13
70708;SHT30;58277;47.316;18.908;2023-07-29T05:29:40;25.74;60.68
70708;SHT30;58277;47.316;18.908;2023-07-29T05:32:03;25.75;60.22
70708;SHT30;58277;47.316;18.908;2023-07-29T05:34:26;25.65;60.04
70708;SHT30;58277;47.316;18.908;2023-07-29T05:36:49;25.63;59.74
70708;SHT30;58277;47.316;18.908;2023-07-29T05:39:11;25.50;59.30
70708;SHT30;58277;47.316;18.908;2023-07-29T05:41:34;25.46;59.97
70708;SHT30;58277;47.316;18.908;2023-07-29T05:43:57;25.46;60.13
70708;SHT30;58277;47.316;18.908;2023-07-29T05:46:20;25.44;59.70
70708;SHT30;58277;47.316;18.908;2023-07-29T05:48:43;25.46;59.59
70708;SHT30;58277;47.316;18.908;2023-07-29T05:51:05;25.33;59.69
70708;SHT30;58277;47.316;18.908;2023-07-29T05:53:28;25.38;59.73
70708;SHT30;58277;47.316;18.908;2023-07-29T05:55:51;25.33;60.03
70708;SHT30;58277;47.316;18.908;2023-07-29T05:58:14;25.22;60.53
70708;SHT30;58277;47.316;18.908;2023-07-29T06:00:37;25.31;60.43
70708;SHT30;58277;47.316;18.908;2023-07-29T06:03:00;25.34;60.54
70708;SHT30;58277;47.316;18.908;2023-07-29T06:05:23;25.50;60.51
70708;SHT30;58277;47.316;18.908;2023-07-29T06:07:47;25.60;60.50
70708;SHT30;58277;47.316;18.908;2023-07-29T06:10:13;25.65;60.49
70708;SHT30;58277;47.316;18.908;2023-07-29T06:12:36;25.64;60.39
70708;SHT30;58277;47.316;18.908;2023-07-29T06:14:58;25.75;60.09
70708;SHT30;58277;47.316;18.908;2023-07-29T06:17:21;25.80;59.46
70708;SHT30;58277;47.316;18.908;2023-07-29T06:19:44;25.91;59.68
70708;SHT30;58277;47.316;18.908;2023-07-29T06:22:07;25.88;59.53
70708;SHT30;58277;47.316;18.908;2023-07-29T06:24:30;25.85;59.33
70708;SHT30;58277;47.316;18.908;2023-07-29T06:26:52;25.86;59.83
70708;SHT30;58277;47.316;18.908;2023-07-29T06:29:15;26.05;59.50
70708;SHT30;58277;47.316;18.908;2023-07-29T06:31:38;26.08;59.41
70708;SHT30;58277;47.316;18.908;2023-07-29T06:34:00;26.23;58.20
70708;SHT30;58277;47.316;18.908;2023-07-29T06:36:23;26.29;57.78
70708;SHT30;58277;47.316;18.908;2023-07-29T06:38:46;26.19;58.26
70708;SHT30;58277;47.316;18.908;2023-07-29T06:41:09;26.20;57.17
70708;SHT30;58277;47.316;18.908;2023-07-29T06:43:36;26.49;56.92
70708;SHT30;58277;47.316;18.908;2023-07-29T06:45:59;26.76;55.97
70708;SHT30;58277;47.316;18.908;2023-07-29T06:48:22;27.22;54.53
70708;SHT30;58277;47.316;18.908;2023-07-29T06:50:45;28.08;53.18
70708;SHT30;58277;47.316;18.908;2023-07-29T06:53:08;28.07;52.05
70708;SHT30;58277;47.316;18.908;2023-07-29T06:55:31;27.91;52.58
70708;SHT30;58277;47.316;18.908;2023-07-29T06:57:54;27.79;52.60
70708;SHT30;58277;47.316;18.908;2023-07-29T07:00:17;27.69;52.08
70708;SHT30;58277;47.316;18.908;2023-07-29T07:02:39;27.76;52.20
70708;SHT30;58277;47.316;18.908;2023-07-29T07:05:02;27.81;52.27
70708;SHT30;58277;47.316;18.908;2023-07-29T07:07:25;27.57;53.13
70708;SHT30;58277;47.316;18.908;2023-07-29T07:09:47;27.50;53.43
70708;SHT30;58277;47.316;18.908;2023-07-29T07:12:10;27.36;53.50
70708;SHT30;58277;47.316;18.908;2023-07-29T07:14:33;27.35;53.66
70708;SHT30;58277;47.316;18.908;2023-07-29T07:16:56;27.33;53.54
70708;SHT30;58277;47.316;18.908;2023-07-29T07:19:19;27.36;53.20
70708;SHT30;58277;47.316;18.908;2023-07-29T07:21:41;27.63;53.24
70708;SHT30;58277;47.316;18.908;2023-07-29T07:24:04;27.87;53.25
70708;SHT30;58277;47.316;18.908;2023-07-29T07:26:27;27.94;52.79
70708;SHT30;58277;47.316;18.908;2023-07-29T07:28:49;28.15;51.96
70708;SHT30;58277;47.316;18.908;2023-07-29T07:31:13;28.28;51.55
70708;SHT30;58277;47.316;18.908;2023-07-29T07:33:38;28.45;51.19
70708;SHT30;58277;47.316;18.908;2023-07-29T07:36:01;28.83;49.36
70708;SHT30;58277;47.316;18.908;2023-07-29T07:38:24;28.82;50.19
70708;SHT30;58277;47.316;18.908;2023-07-29T07:40:54;29.04;49.35
70708;SHT30;58277;47.316;18.908;2023-07-29T07:43:17;29.28;48.06
70708;SHT30;58277;47.316;18.908;2023-07-29T07:45:40;29.03;47.64
70708;SHT30;58277;47.316;18.908;2023-07-29T07:48:03;29.03;47.95
70708;SHT30;58277;47.316;18.908;2023-07-29T07:50:29;29.04;47.34
70708;SHT30;58277;47.316;18.908;2023-07-29T07:52:52;28.99;47.87
70708;SHT30;58277;47.316;18.908;2023-07-29T07:55:15;29.07;47.72
70708;SHT30;58277;47.316;18.908;2023-07-29T07:57:37;29.06;47.98
70708;SHT30;58277;47.316;18.908;2023-07-29T08:00:00;29.03;48.62
70708;SHT30;58277;47.316;18.908;2023-07-29T08:02:23;28.97;49.58
70708;SHT30;58277;47.316;18.908;2023-07-29T08:04:46;28.99;49.25
70708;SHT30;58277;47.316;18.908;2023-07-29T08:07:08;28.99;49.09
70708;SHT30;58277;47.316;18.908;2023-07-29T08:09:31;28.94;49.92
70708;SHT30;58277;47.316;18.908;2023-07-29T08:11:54;28.99;49.76
70708;SHT30;58277;47.316;18.908;2023-07-29T08:14:17;28.94;49.97
70708;SHT30;58277;47.316;18.908;2023-07-29T08:16:39;28.97;50.36
70708;SHT30;58277;47.316;18.908;2023-07-29T08:19:02;29.08;50.67
70708;SHT30;58277;47.316;18.908;2023-07-29T08:21:26;29.10;50.46
70708;SHT30;58277;47.316;18.908;2023-07-29T08:23:49;29.00;48.71
70708;SHT30;58277;47.316;18.908;2023-07-29T08:26:12;29.07;48.86
70708;SHT30;58277;47.316;18.908;2023-07-29T08:28:37;29.03;48.07
70708;SHT30;58277;47.316;18.908;2023-07-29T08:31:00;29.00;48.03
70708;SHT30;58277;47.316;18.908;2023-07-29T08:33:22;28.92;48.55
70708;SHT30;58277;47.316;18.908;2023-07-29T08:35:45;28.97;48.58
70708;SHT30;58277;47.316;18.908;2023-07-29T08:38:08;28.80;48.77
70708;SHT30;58277;47.316;18.908;2023-07-29T08:40:31;28.90;49.88
70708;SHT30;58277;47.316;18.908;2023-07-29T08:42:58;29.13;48.97
70708;SHT30;58277;47.316;18.908;2023-07-29T08:45:22;29.24;47.95
70708;SHT30;58277;47.316;18.908;2023-07-29T08:47:46;29.32;47.45
70708;SHT30;58277;47.316;18.908;2023-07-29T08:50:10;29.38;47.18
70708;SHT30;58277;47.316;18.908;2023-07-29T08:52:37;29.42;47.29
70708;SHT30;58277;47.316;18.908;2023-07-29T08:55:00;29.51;46.98
70708;SHT30;58277;47.316;18.908;2023-07-29T08:57:23;29.57;46.85
70708;SHT30;58277;47.316;18.908;2023-07-29T09:00:07;29.59;45.53
70708;SHT30;58277;47.316;18.908;2023-07-29T09:02:31;29.61;46.06
70708;SHT30;58277;47.316;18.908;2023-07-29T09:04:54;29.54;46.86
70708;SHT30;58277;47.316;18.908;2023-07-29T09:07:17;29.62;46.49
70708;SHT30;58277;47.316;18.908;2023-07-29T09:09:39;29.37;45.39
70708;SHT30;58277;47.316;18.908;2023-07-29T09:12:03;29.54;45.40
70708;SHT30;58277;47.316;18.908;2023-07-29T09:14:26;29.58;44.68
70708;SHT30;58277;47.316;18.908;2023-07-29T09:16:49;29.48;44.97
70708;SHT30;58277;47.316;18.908;2023-07-29T09:19:12;29.47;44.79
70708;SHT30;58277;47.316;18.908;2023-07-29T09:21:38;29.52;44.20
70708;SHT30;58277;47.316;18.908;2023-07-29T09:24:04;29.52;44.44
70708;SHT30;58277;47.316;18.908;2023-07-29T09:26:28;29.11;45.75
70708;SHT30;58277;47.316;18.908;2023-07-29T09:28:55;29.45;45.74
70708;SHT30;58277;47.316;18.908;2023-07-29T09:31:22;29.59;45.71
70708;SHT30;58277;47.316;18.908;2023-07-29T09:33:45;29.65;45.97
70708;SHT30;58277;47.316;18.908;2023-07-29T09:36:09;29.72;45.05
70708;SHT30;58277;47.316;18.908;2023-07-29T09:38:32;29.82;45.07
70708;SHT30;58277;47.316;18.908;2023-07-29T09:40:56;29.98;44.23
70708;SHT30;58277;47.316;18.908;2023-07-29T09:43:25;30.10;44.22
70708;SHT30;58277;47.316;18.908;2023-07-29T09:45:51;30.28;43.88
70708;SHT30;58277;47.316;18.908;2023-07-29T09:48:14;30.37;43.63
70708;SHT30;58277;47.316;18.908;2023-07-29T09:50:42;30.48;43.39
70708;SHT30;58277;47.316;18.908;2023-07-29T09:53:07;30.31;42.46
70708;SHT30;58277;47.316;18.908;2023-07-29T09:55:32;30.33;43.07
70708;SHT30;58277;47.316;18.908;2023-07-29T09:58:00;30.47;42.46
70708;SHT30;58277;47.316;18.908;2023-07-29T10:00:25;30.60;42.21
70708;SHT30;58277;47.316;18.908;2023-07-29T10:02:48;30.68;41.59
70708;SHT30;58277;47.316;18.908;2023-07-29T10:05:12;30.48;41.96
70708;SHT30;58277;47.316;18.908;2023-07-29T10:07:38;30.61;42.42
70708;SHT30;58277;47.316;18.908;2023-07-29T10:10:03;30.64;40.34
70708;SHT30;58277;47.316;18.908;2023-07-29T10:12:27;30.85;41.09
70708;SHT30;58277;47.316;18.908;2023-07-29T10:14:51;30.96;40.17
70708;SHT30;58277;47.316;18.908;2023-07-29T10:17:15;31.04;41.54
70708;SHT30;58277;47.316;18.908;2023-07-29T10:19:39;31.19;40.63
70708;SHT30;58277;47.316;18.908;2023-07-29T10:22:03;31.27;40.90
70708;SHT30;58277;47.316;18.908;2023-07-29T10:24:30;31.41;40.32
70708;SHT30;58277;47.316;18.908;2023-07-29T10:26:53;31.34;39.37
70708;SHT30;58277;47.316;18.908;2023-07-29T10:29:20;31.54;39.00
70708;SHT30;58277;47.316;18.908;2023-07-29T10:31:45;31.61;39.08
70708;SHT30;58277;47.316;18.908;2023-07-29T10:34:09;31.70;39.63
70708;SHT30;58277;47.316;18.908;2023-07-29T10:36:32;31.91;38.05
70708;SHT30;58277;47.316;18.908;2023-07-29T10:38:56;32.05;39.00
70708;SHT30;58277;47.316;18.908;2023-07-29T10:41:18;32.16;37.33
70708;SHT30;58277;47.316;18.908;2023-07-29T10:43:41;32.40;37.48
70708;SHT30;58277;47.316;18.908;2023-07-29T10:46:33;32.84;34.90
70708;SHT30;58277;47.316;18.908;2023-07-29T10:48:58;33.03;34.47
70708;SHT30;58277;47.316;18.908;2023-07-29T10:53:55;33.21;35.24
70708;SHT30;58277;47.316;18.908;2023-07-29T10:56:28;33.34;35.56
70708;SHT30;58277;47.316;18.908;2023-07-29T10:58:51;33.39;36.27
70708;SHT30;58277;47.316;18.908;2023-07-29T11:01:26;33.49;36.57
70708;SHT30;58277;47.316;18.908;2023-07-29T11:04:22;33.56;36.05
70708;SHT30;58277;47.316;18.908;2023-07-29T11:12:35;33.28;36.27
70708;SHT30;58277;47.316;18.908;2023-07-29T11:17:33;33.15;36.44
70708;SHT30;58277;47.316;18.908;2023-07-29T11:20:00;33.27;36.91
70708;SHT30;58277;47.316;18.908;2023-07-29T11:22:23;33.38;37.67
70708;SHT30;58277;47.316;18.908;2023-07-29T11:24:48;33.48;36.24
70708;SHT30;58277;47.316;18.908;2023-07-29T11:27:13;33.38;36.28
70708;SHT30;58277;47.316;18.908;2023-07-29T11:29:36;33.37;36.19
70708;SHT30;58277;47.316;18.908;2023-07-29T11:31:58;33.37;35.88
70708;SHT30;58277;47.316;18.908;2023-07-29T11:34:33;32.96;37.07
70708;SHT30;58277;47.316;18.908;2023-07-29T11:36:56;32.73;36.91
70708;SHT30;58277;47.316;18.908;2023-07-29T11:39:19;31.97;37.52
70708;SHT30;58277;47.316;18.908;2023-07-29T11:41:42;31.92;38.50
70708;SHT30;58277;47.316;18.908;2023-07-29T11:44:09;31.84;39.28
70708;SHT30;58277;47.316;18.908;2023-07-29T11:46:34;31.57;39.69
70708;SHT30;58277;47.316;18.908;2023-07-29T11:48:57;31.54;39.22
70708;SHT30;58277;47.316;18.908;2023-07-29T11:51:21;31.30;40.52
70708;SHT30;58277;47.316;18.908;2023-07-29T11:53:44;31.23;40.56
70708;SHT30;58277;47.316;18.908;2023-07-29T11:56:07;31.33;40.65
70708;SHT30;58277;47.316;18.908;2023-07-29T11:58:31;31.56;39.93
70708;SHT30;58277;47.316;18.908;2023-07-29T12:00:54;31.54;39.27
70708;SHT30;58277;47.316;18.908;2023-07-29T12:03:16;31.81;38.86
70708;SHT30;58277;47.316;18.908;2023-07-29T12:05:41;32.16;38.44
70708;SHT30;58277;47.316;18.908;2023-07-29T12:08:04;32.52;38.17
70708;SHT30;58277;47.316;18.908;2023-07-29T12:10:27;32.74;37.38
70708;SHT30;58277;47.316;18.908;2023-07-29T12:12:50;32.76;37.55
70708;SHT30;58277;47.316;18.908;2023-07-29T12:15:13;32.69;38.07
70708;SHT30;58277;47.316;18.908;2023-07-29T12:17:42;32.53;37.49
70708;SHT30;58277;47.316;18.908;2023-07-29T12:20:08;32.39;37.94
70708;SHT30;58277;47.316;18.908;2023-07-29T12:22:31;32.14;38.77
70708;SHT30;58277;47.316;18.908;2023-07-29T12:24:54;32.14;39.48
70708;SHT30;58277;47.316;18.908;2023-07-29T12:27:17;32.19;39.39
70708;SHT30;58277;47.316;18.908;2023-07-29T12:29:41;32.24;38.34
70708;SHT30;58277;47.316;18.908;2023-07-29T12:32:04;32.15;38.37
70708;SHT30;58277;47.316;18.908;2023-07-29T12:34:29;32.08;38.83
70708;SHT30;58277;47.316;18.908;2023-07-29T12:36:52;31.91;40.19
70708;SHT30;58277;47.316;18.908;2023-07-29T12:39:23;31.51;39.27
70708;SHT30;58277;47.316;18.908;2023-07-29T12:41:46;31.53;39.28
70708;SHT30;58277;47.316;18.908;2023-07-29T12:44:09;31.71;39.72
70708;SHT30;58277;47.316;18.908;2023-07-29T12:46:32;32.01;38.36
70708;SHT30;58277;47.316;18.908;2023-07-29T12:48:55;32.39;38.16
70708;SHT30;58277;47.316;18.908;2023-07-29T12:51:17;32.70;37.35
70708;SHT30;58277;47.316;18.908;2023-07-29T12:53:40;33.28;36.72
70708;SHT30;58277;47.316;18.908;2023-07-29T12:56:03;33.51;36.14
70708;SHT30;58277;47.316;18.908;2023-07-29T12:58:26;33.72;36.19
70708;SHT30;58277;47.316;18.908;2023-07-29T13:00:48;33.55;37.06
70708;SHT30;58277;47.316;18.908;2023-07-29T13:03:11;33.48;37.22
70708;SHT30;58277;47.316;18.908;2023-07-29T13:05:34;33.12;37.21
70708;SHT30;58277;47.316;18.908;2023-07-29T13:07:57;33.03;37.38
70708;SHT30;58277;47.316;18.908;2023-07-29T13:10:19;32.86;37.68
70708;SHT30;58277;47.316;18.908;2023-07-29T13:12:42;32.56;38.37
70708;SHT30;58277;47.316;18.908;2023-07-29T13:15:06;32.32;37.55
70708;SHT30;58277;47.316;18.908;2023-07-29T13:17:28;31.99;38.30
70708;SHT30;58277;47.316;18.908;2023-07-29T13:19:51;31.87;38.44
70708;SHT30;58277;47.316;18.908;2023-07-29T13:22:14;31.66;38.52
70708;SHT30;58277;47.316;18.908;2023-07-29T13:24:57;31.61;40.13
70708;SHT30;58277;47.316;18.908;2023-07-29T13:27:41;31.49;39.72
70708;SHT30;58277;47.316;18.908;2023-07-29T13:30:04;31.43;38.89
70708;SHT30;58277;47.316;18.908;2023-07-29T13:32:27;31.30;38.19
70708;SHT30;58277;47.316;18.908;2023-07-29T13:34:50;31.16;38.47
70708;SHT30;58277;47.316;18.908;2023-07-29T13:37:13;31.04;39.10
70708;SHT30;58277;47.316;18.908;2023-07-29T13:39:35;30.98;39.46
70708;SHT30;58277;47.316;18.908;2023-07-29T13:41:58;31.18;39.45
70708;SHT30;58277;47.316;18.908;2023-07-29T13:44:21;31.30;39.09
70708;SHT30;58277;47.316;18.908;2023-07-29T13:46:43;31.63;38.50
70708;SHT30;58277;47.316;18.908;2023-07-29T13:49:06;31.71;38.88
70708;SHT30;58277;47.316;18.908;2023-07-29T13:51:29;32.06;38.78
70708;SHT30;58277;47.316;18.908;2023-07-29T13:53:52;32.29;38.20
70708;SHT30;58277;47.316;18.908;2023-07-29T13:56:15;32.48;36.84
70708;SHT30;58277;47.316;18.908;2023-07-29T13:58:37;32.73;36.46
70708;SHT30;58277;47.316;18.908;2023-07-29T14:01:00;32.86;35.76
70708;SHT30;58277;47.316;18.908;2023-07-29T14:03:23;32.96;35.75
70708;SHT30;58277;47.316;18.908;2023-07-29T14:05:45;33.08;35.35
70708;SHT30;58277;47.316;18.908;2023-07-29T14:08:08;33.08;35.27
70708;SHT30;58277;47.316;18.908;2023-07-29T14:10:31;33.10;35.92
70708;SHT30;58277;47.316;18.908;2023-07-29T14:12:53;33.14;37.71
70708;SHT30;58277;47.316;18.908;2023-07-29T14:15:16;33.07;37.84
70708;SHT30;58277;47.316;18.908;2023-07-29T14:17:39;33.04;37.80
70708;SHT30;58277;47.316;18.908;2023-07-29T14:20:02;33.01;37.96
70708;SHT30;58277;47.316;18.908;2023-07-29T14:22:27;33.01;38.34
70708;SHT30;58277;47.316;18.908;2023-07-29T14:24:49;33.01;38.12
70708;SHT30;58277;47.316;18.908;2023-07-29T14:27:12;32.96;38.08
70708;SHT30;58277;47.316;18.908;2023-07-29T14:29:35;32.77;38.65
70708;SHT30;58277;47.316;18.908;2023-07-29T14:31:57;32.71;38.64
70708;SHT30;58277;47.316;18.908;2023-07-29T14:34:20;32.79;39.08
70708;SHT30;58277;47.316;18.908;2023-07-29T14:36:43;32.90;38.80
70708;SHT30;58277;47.316;18.908;2023-07-29T14:39:05;32.86;39.29
70708;SHT30;58277;47.316;18.908;2023-07-29T14:41:30;32.44;39.59
70708;SHT30;58277;47.316;18.908;2023-07-29T14:43:52;32.59;39.38
70708;SHT30;58277;47.316;18.908;2023-07-29T14:46:15;32.79;39.13
70708;SHT30;58277;47.316;18.908;2023-07-29T14:48:38;32.88;38.80
70708;SHT30;58277;47.316;18.908;2023-07-29T14:51:00;32.94;38.93
70708;SHT30;58277;47.316;18.908;2023-07-29T14:53:23;33.03;38.62
70708;SHT30;58277;47.316;18.908;2023-07-29T14:55:46;33.01;38.47
70708;SHT30;58277;47.316;18.908;2023-07-29T14:58:09;33.01;38.61
70708;SHT30;58277;47.316;18.908;2023-07-29T15:00:32;33.14;38.56
70708;SHT30;58277;47.316;18.908;2023-07-29T15:02:55;33.31;38.63
70708;SHT30;58277;47.316;18.908;2023-07-29T15:05:18;33.37;38.28
70708;SHT30;58277;47.316;18.908;2023-07-29T15:07:41;32.97;38.98
70708;SHT30;58277;47.316;18.908;2023-07-29T15:10:04;33.10;38.68
70708;SHT30;58277;47.316;18.908;2023-07-29T15:12:27;33.04;38.15
70708;SHT30;58277;47.316;18.908;2023-07-29T15:14:50;33.00;38.01